Hors Challenge

L'STC Night Trail à Cerfontaine (26.00 km)

dimanche 30 décembre 2018

Vous pouvez trouver Le classement original sur : http://www.extreme-sport.be/
 
STC NIGHT TRAIL - CERFONTAINE
DISTANCE : 25.82 km
dimanche 30 décembre 2018
 
Place dos NOM Catégorie Pl/cat temps temps/km Vitesse
01:00:00              
1 32 MOUTIAPOULÉ GÉRALD SEH 1 1:53:56 04:25 13.60
2 109 THÉMONT JÉRÔME SEH 2 1:57:24 04:33 13.20
3 121 PAHOS ANDRÉAS SEH 3 1:57:35 04:33 13.18
4 86 BASTOGNE OLIVIER V1H 1 1:58:09 04:35 13.11
5 115 PARENT QUENTIN SEH 4 2:00:09 04:39 12.90
6 119 CAMUS RENAUD SEH 5 2:03:32 04:47 12.54
7 123 MAHIA SÉBASTIEN SEH 6 2:04:05 04:48 12.49
8 70 FOX DAVID XXX   2:04:45 04:50 12.42
9 44 TROCHAIN SÉBASTIEN SEH 7 2:06:30 04:54 12.25
10 42 BAZEILLE DAVID SEH 8 2:08:07 04:58 12.09
11 66 NAVEZ SÉBASTIEN SEH 9 2:08:16 04:58 12.08
12 122 BERTI ROMAIN SEH 10 2:11:18 05:05 11.80
13 58 GOBAILLE THOMAS SEH 11 2:13:00 05:09 11.65
14 85 DETRAIT HUGUES SEH 12 2:13:05 05:09 11.64
15 103 PONTUS SÉBASTIEN SEH 13 2:13:13 05:10 11.63
16 12 MARQUES NICOLAS V1H 2 2:15:15 05:14 11.46
17 76 MAZY CLÉMENT SEH 14 2:15:18 05:14 11.45
18 78 LAUNOIS JÉRÔME SEH 15 2:19:12 05:23 11.13
19 107 DETELLIER CHRISTOPHE SEH 16 2:20:55 05:27 11.00
20 104 DEFOSSE LUCAS SEH 17 2:21:30 05:29 10.95
21 14 VANDERMARLIERE GUILLAUME SEH 18 2:21:40 05:29 10.94
22 10 MARTINOT HERVO V1H 3 2:24:03 05:35 10.76
23 102 DEDOCQ SEBASTIEN SEH 19 2:28:09 05:44 10.46
24 731 FRENNET GRÉGORY SEH 20 2:28:42 05:45 10.42
25 57 GRANVILLE DIMITRI V1H 4 2:31:39 05:52 10.22
26 65 SLEEWAEGEN JACQUES V1H 5 2:32:09 05:53 10.18
27 16 BOURIQUET ROMAIN SEH 21 2:32:56 05:55 10.13
28 126 MAHIEU HUGUES V3H 1 2:34:54 06:00 10.00
29 51 JOLY JEAN-LOU SEH 22 2:35:10 06:01 9.99
30 100 DOMINGUES DANIEL V1H 6 2:35:34 06:01 9.96
31 120 HUBERT CHARLES SEH 23 2:36:01 06:02 9.93
32 118 KLAUS PAULINE SEF 1 2:40:17 06:12 9.67
33 117 DELERS CLÉMENT SEH 24 2:40:20 06:13 9.66
34 22 PIRON CÉDRIC V1H 7 2:41:43 06:16 9.58
35 56 MASSART JULIEN SEH 25 2:42:23 06:17 9.54
36 108 LAMBERT ANTOINE SEH 26 2:42:54 06:18 9.51
37 75 BRUNOIS JACQUES V2H 1 2:42:54 06:18 9.51
38 33 DIEUDONNE MICHEL V1H 8 2:43:42 06:20 9.47
39 55 HÉNIART JEAN-MARC V1H 9 2:45:57 06:26 9.34
40 99 DEWAULLE CHRISTOPHE V1H 10 2:50:29 06:36 9.09
41 79 MARCHI STÉPHANE V1H 11 2:50:29 06:36 9.09
42 87 PAREIN ESTELLE SEF 2 2:51:11 06:38 9.05
43 34 PAGE BENJAMIN SEH 27 2:51:13 06:38 9.05
44 71 DEMEUNIER PASCAL V2H 2 2:51:55 06:39 9.01
45 62 LEFÈVRE BERNARD V1H 12 2:53:06 06:42 8.95
46 31 MAZZAGLIA PIETRO V1H 13 2:56:49 06:51 8.76
47 83 THIÉBAUX CORENTIN SEH 28 2:56:58 06:51 8.76
48 98 PILATTE NICOLAS SEH 29 2:56:58 06:51 8.76
49 128 MAHIEU ANTOINE SEH 30 2:57:08 06:52 8.75
50 130 FOX SOPHIE V1F 1 2:57:26 06:52 8.73
51 73 ALBERT MIKA SEH 31 3:04:22 07:08 8.40
52 92 JEMINE EMILIE SEF 3 3:04:22 07:08 8.40
53 77 SOREL ARNAUD SEH 32 3:05:44 07:12 8.34
54 106 HORINKA SANDRINE V1F 2 3:10:35 07:23 8.13
55 41 NAVAUX ADRIEN SEH 33 3:15:40 07:35 7.92
56 17 MANDERRIER JEAN-CLAUDE V2H 3 3:15:59 07:35 7.91
57 64 SONET RENAUD V1H 14 3:20:47 07:46 7.72
58 131 GARCIA JOSE-LUIS V2H 4 3:43:16 08:39 6.94